Sedgefield, North Carolina
Current Conditions -  °F | °C
As of 6:54 AM on Thursday 23 Oct 2014 (Local Time) from KGSO Reporting Station
Clear Clear  
Wind Chill: 42°   Ceiling: Unl
Heat Index: 42°   Visibility: 10mi
Dew Point: 38°   Wind: 3mph
Humidity: 85%   Direction: 310°NW
Pressure: 30.03"   Gusts: NA
Location:  36.011°N, 79.8751°W
Report Text: KGSO 231054Z 31003KT 10SM CLR 06/03 A3003 RMK AO2 SLP168 T00560033
Loading
Personal Weather Stations






























Interactive Weather Map
Tropical Storm Tracking
New forecast layout! Learn more

10-Day Weather Forecast

Advertisements
Track Severe Weather on mobile